sensor_id;sensor_type;location;lat;lon;timestamp;P1;durP1;ratioP1;P2;durP2;ratioP2
14052;SDS011;7101;51.600;7.310;2023-02-25T00:01:23;17.17;;;3.53;;
14052;SDS011;7101;51.600;7.310;2023-02-25T00:03:53;14.18;;;3.25;;
14052;SDS011;7101;51.600;7.310;2023-02-25T00:06:21;16.70;;;2.92;;
14052;SDS011;7101;51.600;7.310;2023-02-25T00:08:49;16.08;;;3.50;;
14052;SDS011;7101;51.600;7.310;2023-02-25T00:11:17;15.25;;;3.63;;
14052;SDS011;7101;51.600;7.310;2023-02-25T00:13:45;19.60;;;3.17;;
14052;SDS011;7101;51.600;7.310;2023-02-25T00:16:12;13.27;;;2.72;;
14052;SDS011;7101;51.600;7.310;2023-02-25T00:18:40;12.85;;;3.35;;
14052;SDS011;7101;51.600;7.310;2023-02-25T00:21:09;13.10;;;2.67;;
14052;SDS011;7101;51.600;7.310;2023-02-25T00:23:39;15.48;;;2.92;;
14052;SDS011;7101;51.600;7.310;2023-02-25T00:26:07;14.20;;;2.65;;
14052;SDS011;7101;51.600;7.310;2023-02-25T00:28:35;13.40;;;2.75;;
14052;SDS011;7101;51.600;7.310;2023-02-25T00:31:07;16.67;;;3.13;;
14052;SDS011;7101;51.600;7.310;2023-02-25T00:33:35;17.05;;;3.10;;
14052;SDS011;7101;51.600;7.310;2023-02-25T00:36:06;12.48;;;2.63;;
14052;SDS011;7101;51.600;7.310;2023-02-25T00:38:36;11.90;;;2.65;;
14052;SDS011;7101;51.600;7.310;2023-02-25T00:41:05;10.75;;;2.15;;
14052;SDS011;7101;51.600;7.310;2023-02-25T00:43:37;13.73;;;2.47;;
14052;SDS011;7101;51.600;7.310;2023-02-25T00:46:05;10.20;;;2.60;;
14052;SDS011;7101;51.600;7.310;2023-02-25T00:48:31;14.90;;;2.65;;
14052;SDS011;7101;51.600;7.310;2023-02-25T00:51:03;10.48;;;2.42;;
14052;SDS011;7101;51.600;7.310;2023-02-25T00:53:31;9.90;;;2.38;;
14052;SDS011;7101;51.600;7.310;2023-02-25T00:56:00;9.20;;;2.38;;
14052;SDS011;7101;51.600;7.310;2023-02-25T00:58:27;13.02;;;2.30;;
14052;SDS011;7101;51.600;7.310;2023-02-25T01:00:54;12.10;;;3.03;;
14052;SDS011;7101;51.600;7.310;2023-02-25T01:03:21;12.43;;;2.75;;
14052;SDS011;7101;51.600;7.310;2023-02-25T01:05:49;13.77;;;2.95;;
14052;SDS011;7101;51.600;7.310;2023-02-25T01:08:16;16.23;;;2.63;;
14052;SDS011;7101;51.600;7.310;2023-02-25T01:10:44;17.27;;;2.90;;
14052;SDS011;7101;51.600;7.310;2023-02-25T01:13:13;12.40;;;2.72;;
14052;SDS011;7101;51.600;7.310;2023-02-25T01:15:40;11.77;;;2.92;;
14052;SDS011;7101;51.600;7.310;2023-02-25T01:18:09;10.10;;;2.38;;
14052;SDS011;7101;51.600;7.310;2023-02-25T01:20:36;9.73;;;2.42;;
14052;SDS011;7101;51.600;7.310;2023-02-25T01:23:04;11.10;;;2.65;;
14052;SDS011;7101;51.600;7.310;2023-02-25T01:25:33;18.83;;;2.85;;
14052;SDS011;7101;51.600;7.310;2023-02-25T01:27:59;11.73;;;2.88;;
14052;SDS011;7101;51.600;7.310;2023-02-25T01:30:28;11.93;;;2.88;;
14052;SDS011;7101;51.600;7.310;2023-02-25T01:32:54;13.68;;;2.47;;
14052;SDS011;7101;51.600;7.310;2023-02-25T01:35:21;17.10;;;2.63;;
14052;SDS011;7101;51.600;7.310;2023-02-25T01:37:48;12.95;;;2.53;;
14052;SDS011;7101;51.600;7.310;2023-02-25T01:40:15;8.23;;;2.47;;
14052;SDS011;7101;51.600;7.310;2023-02-25T01:42:43;14.05;;;3.03;;
14052;SDS011;7101;51.600;7.310;2023-02-25T01:45:23;14.30;;;2.70;;
14052;SDS011;7101;51.600;7.310;2023-02-25T01:47:59;15.35;;;2.95;;
14052;SDS011;7101;51.600;7.310;2023-02-25T01:50:35;15.50;;;2.58;;
14052;SDS011;7101;51.600;7.310;2023-02-25T01:53:07;17.67;;;3.13;;
14052;SDS011;7101;51.600;7.310;2023-02-25T01:55:34;19.25;;;3.30;;
14052;SDS011;7101;51.600;7.310;2023-02-25T01:58:01;13.10;;;2.80;;
14052;SDS011;7101;51.600;7.310;2023-02-25T02:00:30;12.00;;;2.90;;
14052;SDS011;7101;51.600;7.310;2023-02-25T02:10:12;17.42;;;2.60;;
14052;SDS011;7101;51.600;7.310;2023-02-25T02:12:39;12.60;;;2.35;;
14052;SDS011;7101;51.600;7.310;2023-02-25T02:15:10;11.30;;;2.45;;
14052;SDS011;7101;51.600;7.310;2023-02-25T02:17:40;11.80;;;2.60;;
14052;SDS011;7101;51.600;7.310;2023-02-25T02:20:14;12.50;;;2.50;;
14052;SDS011;7101;51.600;7.310;2023-02-25T02:22:53;10.40;;;2.78;;
14052;SDS011;7101;51.600;7.310;2023-02-25T02:25:51;12.52;;;2.53;;
14052;SDS011;7101;51.600;7.310;2023-02-25T02:29:09;14.55;;;2.58;;
14052;SDS011;7101;51.600;7.310;2023-02-25T02:32:02;12.85;;;3.03;;
14052;SDS011;7101;51.600;7.310;2023-02-25T02:34:37;14.65;;;3.08;;
14052;SDS011;7101;51.600;7.310;2023-02-25T02:37:15;12.30;;;2.95;;
14052;SDS011;7101;51.600;7.310;2023-02-25T02:39:50;15.48;;;3.00;;
14052;SDS011;7101;51.600;7.310;2023-02-25T02:42:27;11.27;;;2.85;;
14052;SDS011;7101;51.600;7.310;2023-02-25T02:45:01;13.65;;;3.17;;
14052;SDS011;7101;51.600;7.310;2023-02-25T02:47:37;17.10;;;3.58;;
14052;SDS011;7101;51.600;7.310;2023-02-25T02:50:07;13.13;;;2.47;;
14052;SDS011;7101;51.600;7.310;2023-02-25T02:52:36;14.77;;;3.13;;
14052;SDS011;7101;51.600;7.310;2023-02-25T02:55:09;21.65;;;3.22;;
14052;SDS011;7101;51.600;7.310;2023-02-25T02:57:46;19.90;;;3.20;;
14052;SDS011;7101;51.600;7.310;2023-02-25T03:00:17;12.82;;;3.38;;
14052;SDS011;7101;51.600;7.310;2023-02-25T03:02:52;20.95;;;3.03;;
14052;SDS011;7101;51.600;7.310;2023-02-25T03:05:22;17.45;;;3.00;;
14052;SDS011;7101;51.600;7.310;2023-02-25T03:07:54;17.52;;;3.17;;
14052;SDS011;7101;51.600;7.310;2023-02-25T03:10:27;16.85;;;3.13;;
14052;SDS011;7101;51.600;7.310;2023-02-25T03:12:55;17.73;;;3.05;;
14052;SDS011;7101;51.600;7.310;2023-02-25T03:15:22;14.18;;;3.17;;
14052;SDS011;7101;51.600;7.310;2023-02-25T03:17:53;13.40;;;2.90;;
14052;SDS011;7101;51.600;7.310;2023-02-25T03:20:24;17.42;;;3.75;;
14052;SDS011;7101;51.600;7.310;2023-02-25T03:22:54;14.90;;;3.25;;
14052;SDS011;7101;51.600;7.310;2023-02-25T03:25:27;15.73;;;3.03;;
14052;SDS011;7101;51.600;7.310;2023-02-25T03:27:58;17.95;;;3.25;;
14052;SDS011;7101;51.600;7.310;2023-02-25T03:30:30;17.40;;;3.92;;
14052;SDS011;7101;51.600;7.310;2023-02-25T03:33:02;23.52;;;4.32;;
14052;SDS011;7101;51.600;7.310;2023-02-25T03:35:32;16.75;;;3.88;;
14052;SDS011;7101;51.600;7.310;2023-02-25T03:38:03;17.52;;;4.03;;
14052;SDS011;7101;51.600;7.310;2023-02-25T03:40:33;16.63;;;3.92;;
14052;SDS011;7101;51.600;7.310;2023-02-25T03:43:02;19.88;;;3.88;;
14052;SDS011;7101;51.600;7.310;2023-02-25T03:45:31;17.92;;;3.65;;
14052;SDS011;7101;51.600;7.310;2023-02-25T03:48:02;25.88;;;4.40;;
14052;SDS011;7101;51.600;7.310;2023-02-25T03:50:32;21.67;;;4.57;;
14052;SDS011;7101;51.600;7.310;2023-02-25T03:53:02;18.70;;;4.15;;
14052;SDS011;7101;51.600;7.310;2023-02-25T03:55:29;18.15;;;4.00;;
14052;SDS011;7101;51.600;7.310;2023-02-25T03:57:56;17.02;;;3.88;;
14052;SDS011;7101;51.600;7.310;2023-02-25T04:00:24;17.10;;;3.72;;
14052;SDS011;7101;51.600;7.310;2023-02-25T04:02:53;14.93;;;3.45;;
14052;SDS011;7101;51.600;7.310;2023-02-25T04:05:22;20.60;;;3.42;;
14052;SDS011;7101;51.600;7.310;2023-02-25T04:07:51;19.13;;;3.63;;
14052;SDS011;7101;51.600;7.310;2023-02-25T04:10:18;21.38;;;3.58;;
14052;SDS011;7101;51.600;7.310;2023-02-25T04:12:45;16.80;;;3.17;;
14052;SDS011;7101;51.600;7.310;2023-02-25T04:15:13;17.23;;;3.58;;
14052;SDS011;7101;51.600;7.310;2023-02-25T04:17:40;23.33;;;3.63;;
14052;SDS011;7101;51.600;7.310;2023-02-25T04:20:09;15.57;;;3.65;;
14052;SDS011;7101;51.600;7.310;2023-02-25T04:22:38;19.65;;;3.20;;
14052;SDS011;7101;51.600;7.310;2023-02-25T04:25:05;17.98;;;3.55;;
14052;SDS011;7101;51.600;7.310;2023-02-25T04:27:33;18.60;;;3.67;;
14052;SDS011;7101;51.600;7.310;2023-02-25T04:30:00;16.42;;;3.75;;
14052;SDS011;7101;51.600;7.310;2023-02-25T04:32:27;19.95;;;4.03;;
14052;SDS011;7101;51.600;7.310;2023-02-25T04:34:54;12.02;;;3.25;;
14052;SDS011;7101;51.600;7.310;2023-02-25T04:37:21;19.27;;;4.50;;
14052;SDS011;7101;51.600;7.310;2023-02-25T04:39:49;14.75;;;3.75;;
14052;SDS011;7101;51.600;7.310;2023-02-25T04:42:16;13.93;;;3.50;;
14052;SDS011;7101;51.600;7.310;2023-02-25T04:44:43;14.13;;;3.08;;
14052;SDS011;7101;51.600;7.310;2023-02-25T04:47:10;12.93;;;3.17;;
14052;SDS011;7101;51.600;7.310;2023-02-25T04:49:37;21.90;;;3.72;;
14052;SDS011;7101;51.600;7.310;2023-02-25T04:52:09;18.98;;;3.38;;
14052;SDS011;7101;51.600;7.310;2023-02-25T04:54:36;18.95;;;3.70;;
14052;SDS011;7101;51.600;7.310;2023-02-25T04:57:05;21.52;;;3.83;;
14052;SDS011;7101;51.600;7.310;2023-02-25T04:59:32;17.13;;;3.17;;
14052;SDS011;7101;51.600;7.310;2023-02-25T05:01:59;18.27;;;3.95;;
14052;SDS011;7101;51.600;7.310;2023-02-25T05:06:51;16.45;;;2.78;;
14052;SDS011;7101;51.600;7.310;2023-02-25T05:09:18;20.40;;;3.63;;
14052;SDS011;7101;51.600;7.310;2023-02-25T05:11:46;18.92;;;3.50;;
14052;SDS011;7101;51.600;7.310;2023-02-25T05:14:14;20.67;;;3.47;;
14052;SDS011;7101;51.600;7.310;2023-02-25T05:16:41;18.48;;;3.35;;
14052;SDS011;7101;51.600;7.310;2023-02-25T05:19:07;18.70;;;3.30;;
14052;SDS011;7101;51.600;7.310;2023-02-25T05:21:34;16.10;;;3.60;;
14052;SDS011;7101;51.600;7.310;2023-02-25T05:24:01;15.07;;;2.78;;
14052;SDS011;7101;51.600;7.310;2023-02-25T05:26:28;19.42;;;3.42;;
14052;SDS011;7101;51.600;7.310;2023-02-25T05:28:56;15.60;;;3.45;;
14052;SDS011;7101;51.600;7.310;2023-02-25T05:31:25;17.30;;;2.70;;
14052;SDS011;7101;51.600;7.310;2023-02-25T05:33:52;16.00;;;3.03;;
14052;SDS011;7101;51.600;7.310;2023-02-25T05:36:20;14.93;;;2.80;;
14052;SDS011;7101;51.600;7.310;2023-02-25T05:38:47;18.02;;;3.08;;
14052;SDS011;7101;51.600;7.310;2023-02-25T05:41:14;16.35;;;2.80;;
14052;SDS011;7101;51.600;7.310;2023-02-25T05:43:41;14.82;;;2.90;;
14052;SDS011;7101;51.600;7.310;2023-02-25T05:46:10;13.35;;;3.33;;
14052;SDS011;7101;51.600;7.310;2023-02-25T05:48:39;16.13;;;3.00;;
14052;SDS011;7101;51.600;7.310;2023-02-25T05:51:10;18.58;;;3.60;;
14052;SDS011;7101;51.600;7.310;2023-02-25T05:53:38;14.88;;;3.28;;
14052;SDS011;7101;51.600;7.310;2023-02-25T05:56:07;12.95;;;3.40;;
14052;SDS011;7101;51.600;7.310;2023-02-25T05:58:36;20.25;;;3.63;;
14052;SDS011;7101;51.600;7.310;2023-02-25T06:01:05;29.00;;;3.53;;
14052;SDS011;7101;51.600;7.310;2023-02-25T06:03:34;14.57;;;3.22;;
14052;SDS011;7101;51.600;7.310;2023-02-25T06:06:03;17.95;;;3.35;;
14052;SDS011;7101;51.600;7.310;2023-02-25T06:08:31;26.20;;;3.78;;
14052;SDS011;7101;51.600;7.310;2023-02-25T06:10:58;14.07;;;3.35;;
14052;SDS011;7101;51.600;7.310;2023-02-25T06:13:25;17.23;;;3.17;;
14052;SDS011;7101;51.600;7.310;2023-02-25T06:15:53;19.55;;;3.55;;
14052;SDS011;7101;51.600;7.310;2023-02-25T06:18:20;20.85;;;3.42;;
14052;SDS011;7101;51.600;7.310;2023-02-25T06:20:48;14.75;;;3.22;;
14052;SDS011;7101;51.600;7.310;2023-02-25T06:23:16;20.35;;;3.40;;
14052;SDS011;7101;51.600;7.310;2023-02-25T06:25:42;21.80;;;3.85;;
14052;SDS011;7101;51.600;7.310;2023-02-25T06:28:09;13.45;;;3.15;;
14052;SDS011;7101;51.600;7.310;2023-02-25T06:30:36;17.38;;;3.55;;
14052;SDS011;7101;51.600;7.310;2023-02-25T06:33:03;20.13;;;3.25;;
14052;SDS011;7101;51.600;7.310;2023-02-25T06:35:29;19.27;;;3.55;;
14052;SDS011;7101;51.600;7.310;2023-02-25T06:37:58;17.33;;;3.63;;
14052;SDS011;7101;51.600;7.310;2023-02-25T06:40:27;16.35;;;3.08;;
14052;SDS011;7101;51.600;7.310;2023-02-25T06:42:55;17.30;;;3.17;;
14052;SDS011;7101;51.600;7.310;2023-02-25T06:45:22;18.88;;;3.58;;
14052;SDS011;7101;51.600;7.310;2023-02-25T06:47:48;18.65;;;3.80;;
14052;SDS011;7101;51.600;7.310;2023-02-25T06:50:16;20.42;;;3.50;;
14052;SDS011;7101;51.600;7.310;2023-02-25T06:52:44;22.02;;;3.28;;
14052;SDS011;7101;51.600;7.310;2023-02-25T06:55:11;18.00;;;3.55;;
14052;SDS011;7101;51.600;7.310;2023-02-25T06:57:41;21.23;;;4.22;;
14052;SDS011;7101;51.600;7.310;2023-02-25T07:00:09;21.85;;;5.22;;
14052;SDS011;7101;51.600;7.310;2023-02-25T07:02:39;25.52;;;3.67;;
14052;SDS011;7101;51.600;7.310;2023-02-25T07:05:06;15.10;;;3.20;;
14052;SDS011;7101;51.600;7.310;2023-02-25T07:07:36;19.42;;;3.53;;
14052;SDS011;7101;51.600;7.310;2023-02-25T07:10:03;18.05;;;3.40;;
14052;SDS011;7101;51.600;7.310;2023-02-25T07:12:30;17.40;;;3.40;;
14052;SDS011;7101;51.600;7.310;2023-02-25T07:14:59;17.88;;;3.65;;
14052;SDS011;7101;51.600;7.310;2023-02-25T07:17:26;18.10;;;4.13;;
14052;SDS011;7101;51.600;7.310;2023-02-25T07:19:54;18.33;;;3.38;;
14052;SDS011;7101;51.600;7.310;2023-02-25T07:22:21;23.48;;;3.75;;
14052;SDS011;7101;51.600;7.310;2023-02-25T07:24:48;15.27;;;3.38;;
14052;SDS011;7101;51.600;7.310;2023-02-25T07:27:15;14.77;;;3.03;;
14052;SDS011;7101;51.600;7.310;2023-02-25T07:29:42;13.90;;;4.40;;
14052;SDS011;7101;51.600;7.310;2023-02-25T07:32:11;13.52;;;3.80;;
14052;SDS011;7101;51.600;7.310;2023-02-25T07:34:38;14.55;;;3.28;;
14052;SDS011;7101;51.600;7.310;2023-02-25T07:37:05;18.20;;;3.22;;
14052;SDS011;7101;51.600;7.310;2023-02-25T07:39:32;13.90;;;3.15;;
14052;SDS011;7101;51.600;7.310;2023-02-25T07:41:59;21.48;;;3.58;;
14052;SDS011;7101;51.600;7.310;2023-02-25T07:44:26;18.27;;;3.40;;
14052;SDS011;7101;51.600;7.310;2023-02-25T07:46:54;19.05;;;3.28;;
14052;SDS011;7101;51.600;7.310;2023-02-25T07:49:22;16.50;;;3.08;;
14052;SDS011;7101;51.600;7.310;2023-02-25T07:51:49;15.10;;;2.83;;
14052;SDS011;7101;51.600;7.310;2023-02-25T07:54:17;19.83;;;3.75;;
14052;SDS011;7101;51.600;7.310;2023-02-25T07:56:46;17.17;;;3.28;;
14052;SDS011;7101;51.600;7.310;2023-02-25T07:59:15;18.15;;;4.00;;
14052;SDS011;7101;51.600;7.310;2023-02-25T08:01:43;19.98;;;3.55;;
14052;SDS011;7101;51.600;7.310;2023-02-25T08:04:10;13.18;;;3.28;;
14052;SDS011;7101;51.600;7.310;2023-02-25T08:06:39;19.58;;;3.55;;
14052;SDS011;7101;51.600;7.310;2023-02-25T08:09:08;18.42;;;3.60;;
14052;SDS011;7101;51.600;7.310;2023-02-25T08:11:36;22.50;;;4.10;;
14052;SDS011;7101;51.600;7.310;2023-02-25T08:14:04;20.40;;;3.65;;
14052;SDS011;7101;51.600;7.310;2023-02-25T08:16:31;15.07;;;2.92;;
14052;SDS011;7101;51.600;7.310;2023-02-25T08:19:00;14.93;;;3.85;;
14052;SDS011;7101;51.600;7.310;2023-02-25T08:21:27;11.88;;;2.90;;
14052;SDS011;7101;51.600;7.310;2023-02-25T08:23:56;20.98;;;4.13;;
14052;SDS011;7101;51.600;7.310;2023-02-25T08:26:24;15.00;;;3.53;;
14052;SDS011;7101;51.600;7.310;2023-02-25T08:28:51;18.48;;;3.50;;
14052;SDS011;7101;51.600;7.310;2023-02-25T08:31:19;18.17;;;3.60;;
14052;SDS011;7101;51.600;7.310;2023-02-25T08:33:47;19.52;;;3.53;;
14052;SDS011;7101;51.600;7.310;2023-02-25T08:36:18;15.27;;;3.25;;
14052;SDS011;7101;51.600;7.310;2023-02-25T08:38:47;14.00;;;3.38;;
14052;SDS011;7101;51.600;7.310;2023-02-25T08:41:16;20.88;;;3.63;;
14052;SDS011;7101;51.600;7.310;2023-02-25T08:43:46;15.50;;;3.53;;
14052;SDS011;7101;51.600;7.310;2023-02-25T08:46:14;16.13;;;3.47;;
14052;SDS011;7101;51.600;7.310;2023-02-25T08:48:41;16.17;;;3.35;;
14052;SDS011;7101;51.600;7.310;2023-02-25T08:51:08;15.57;;;3.28;;
14052;SDS011;7101;51.600;7.310;2023-02-25T08:53:36;13.02;;;3.10;;
14052;SDS011;7101;51.600;7.310;2023-02-25T08:56:04;15.27;;;3.25;;
14052;SDS011;7101;51.600;7.310;2023-02-25T08:58:32;11.15;;;2.75;;
14052;SDS011;7101;51.600;7.310;2023-02-25T09:00:59;10.02;;;2.53;;
14052;SDS011;7101;51.600;7.310;2023-02-25T09:03:26;10.57;;;2.88;;
14052;SDS011;7101;51.600;7.310;2023-02-25T09:05:54;8.02;;;2.33;;
14052;SDS011;7101;51.600;7.310;2023-02-25T09:08:21;9.95;;;2.78;;
14052;SDS011;7101;51.600;7.310;2023-02-25T09:10:48;10.50;;;2.40;;
14052;SDS011;7101;51.600;7.310;2023-02-25T09:13:15;10.93;;;2.20;;
14052;SDS011;7101;51.600;7.310;2023-02-25T09:15:45;7.85;;;1.90;;
14052;SDS011;7101;51.600;7.310;2023-02-25T09:18:21;7.82;;;1.58;;
14052;SDS011;7101;51.600;7.310;2023-02-25T09:20:48;9.43;;;1.85;;
14052;SDS011;7101;51.600;7.310;2023-02-25T09:23:15;10.23;;;2.53;;
14052;SDS011;7101;51.600;7.310;2023-02-25T09:25:42;7.72;;;1.85;;
14052;SDS011;7101;51.600;7.310;2023-02-25T09:28:09;13.25;;;2.00;;
14052;SDS011;7101;51.600;7.310;2023-02-25T09:30:36;10.00;;;2.00;;
14052;SDS011;7101;51.600;7.310;2023-02-25T09:33:04;9.32;;;1.95;;
14052;SDS011;7101;51.600;7.310;2023-02-25T09:35:31;9.13;;;2.00;;
14052;SDS011;7101;51.600;7.310;2023-02-25T09:37:58;5.97;;;1.65;;
14052;SDS011;7101;51.600;7.310;2023-02-25T09:40:25;6.68;;;1.80;;
14052;SDS011;7101;51.600;7.310;2023-02-25T09:42:54;5.18;;;1.75;;
14052;SDS011;7101;51.600;7.310;2023-02-25T09:45:32;6.05;;;1.98;;
14052;SDS011;7101;51.600;7.310;2023-02-25T09:48:01;8.27;;;1.95;;
14052;SDS011;7101;51.600;7.310;2023-02-25T09:50:39;6.28;;;2.00;;
14052;SDS011;7101;51.600;7.310;2023-02-25T09:53:12;7.97;;;1.85;;
14052;SDS011;7101;51.600;7.310;2023-02-25T09:55:43;6.10;;;1.83;;
14052;SDS011;7101;51.600;7.310;2023-02-25T09:58:13;9.55;;;1.95;;
14052;SDS011;7101;51.600;7.310;2023-02-25T10:00:47;9.45;;;2.10;;
14052;SDS011;7101;51.600;7.310;2023-02-25T10:03:28;6.38;;;1.83;;
14052;SDS011;7101;51.600;7.310;2023-02-25T10:06:07;7.45;;;1.88;;
14052;SDS011;7101;51.600;7.310;2023-02-25T10:08:41;8.30;;;1.70;;
14052;SDS011;7101;51.600;7.310;2023-02-25T10:11:15;8.70;;;2.20;;
14052;SDS011;7101;51.600;7.310;2023-02-25T10:13:50;5.90;;;1.55;;
14052;SDS011;7101;51.600;7.310;2023-02-25T10:16:25;4.40;;;1.10;;
14052;SDS011;7101;51.600;7.310;2023-02-25T10:19:05;3.10;;;1.15;;
14052;SDS011;7101;51.600;7.310;2023-02-25T10:21:48;3.38;;;1.13;;
14052;SDS011;7101;51.600;7.310;2023-02-25T10:26:57;4.57;;;1.23;;
14052;SDS011;7101;51.600;7.310;2023-02-25T10:29:29;3.75;;;1.30;;
14052;SDS011;7101;51.600;7.310;2023-02-25T10:32:07;6.45;;;1.38;;
14052;SDS011;7101;51.600;7.310;2023-02-25T10:34:42;3.42;;;1.15;;
14052;SDS011;7101;51.600;7.310;2023-02-25T10:37:13;6.97;;;1.35;;
14052;SDS011;7101;51.600;7.310;2023-02-25T10:39:44;5.28;;;1.30;;
14052;SDS011;7101;51.600;7.310;2023-02-25T10:42:13;8.10;;;1.40;;
14052;SDS011;7101;51.600;7.310;2023-02-25T10:44:41;7.82;;;1.45;;
14052;SDS011;7101;51.600;7.310;2023-02-25T10:47:13;10.85;;;1.67;;
14052;SDS011;7101;51.600;7.310;2023-02-25T10:52:54;9.13;;;2.08;;
14052;SDS011;7101;51.600;7.310;2023-02-25T10:55:24;6.43;;;1.63;;
14052;SDS011;7101;51.600;7.310;2023-02-25T10:58:21;5.93;;;1.73;;
14052;SDS011;7101;51.600;7.310;2023-02-25T11:00:55;5.65;;;1.70;;
14052;SDS011;7101;51.600;7.310;2023-02-25T11:03:25;4.90;;;1.45;;
14052;SDS011;7101;51.600;7.310;2023-02-25T11:06:08;9.75;;;2.13;;
14052;SDS011;7101;51.600;7.310;2023-02-25T11:08:47;8.50;;;1.70;;
14052;SDS011;7101;51.600;7.310;2023-02-25T11:11:15;7.03;;;1.90;;
14052;SDS011;7101;51.600;7.310;2023-02-25T11:13:52;8.77;;;1.95;;
14052;SDS011;7101;51.600;7.310;2023-02-25T11:16:26;6.43;;;1.50;;
14052;SDS011;7101;51.600;7.310;2023-02-25T11:18:56;5.40;;;1.88;;
14052;SDS011;7101;51.600;7.310;2023-02-25T11:21:30;8.57;;;1.98;;
14052;SDS011;7101;51.600;7.310;2023-02-25T11:24:00;6.90;;;1.83;;
14052;SDS011;7101;51.600;7.310;2023-02-25T11:26:32;9.85;;;2.00;;
14052;SDS011;7101;51.600;7.310;2023-02-25T11:29:04;6.80;;;2.15;;
14052;SDS011;7101;51.600;7.310;2023-02-25T11:31:35;6.70;;;1.55;;
14052;SDS011;7101;51.600;7.310;2023-02-25T11:34:06;5.20;;;1.38;;
14052;SDS011;7101;51.600;7.310;2023-02-25T11:36:42;7.95;;;2.03;;
14052;SDS011;7101;51.600;7.310;2023-02-25T11:39:13;6.32;;;1.90;;
14052;SDS011;7101;51.600;7.310;2023-02-25T11:41:43;6.03;;;1.90;;
14052;SDS011;7101;51.600;7.310;2023-02-25T11:44:19;9.63;;;2.08;;
14052;SDS011;7101;51.600;7.310;2023-02-25T11:46:56;6.03;;;1.70;;
14052;SDS011;7101;51.600;7.310;2023-02-25T11:49:33;5.28;;;1.90;;
14052;SDS011;7101;51.600;7.310;2023-02-25T11:52:16;6.25;;;1.80;;
14052;SDS011;7101;51.600;7.310;2023-02-25T11:54:52;4.82;;;1.48;;
14052;SDS011;7101;51.600;7.310;2023-02-25T11:57:29;6.75;;;1.73;;
14052;SDS011;7101;51.600;7.310;2023-02-25T12:00:08;6.55;;;1.80;;
14052;SDS011;7101;51.600;7.310;2023-02-25T12:02:46;8.02;;;1.77;;
14052;SDS011;7101;51.600;7.310;2023-02-25T12:08:30;7.25;;;1.73;;
14052;SDS011;7101;51.600;7.310;2023-02-25T12:14:09;10.70;;;1.70;;
14052;SDS011;7101;51.600;7.310;2023-02-25T12:20:19;6.07;;;1.98;;
14052;SDS011;7101;51.600;7.310;2023-02-25T12:26:48;4.53;;;1.48;;
14052;SDS011;7101;51.600;7.310;2023-02-25T12:29:40;10.20;;;2.03;;
14052;SDS011;7101;51.600;7.310;2023-02-25T12:32:28;6.00;;;1.52;;
14052;SDS011;7101;51.600;7.310;2023-02-25T12:35:13;5.07;;;1.45;;
14052;SDS011;7101;51.600;7.310;2023-02-25T12:38:01;6.53;;;1.63;;
14052;SDS011;7101;51.600;7.310;2023-02-25T12:40:58;6.82;;;1.40;;
14052;SDS011;7101;51.600;7.310;2023-02-25T12:43:44;3.08;;;1.13;;
14052;SDS011;7101;51.600;7.310;2023-02-25T12:49:20;7.05;;;1.58;;
14052;SDS011;7101;51.600;7.310;2023-02-25T12:57:48;5.47;;;1.50;;
14052;SDS011;7101;51.600;7.310;2023-02-25T13:00:35;3.20;;;1.40;;
14052;SDS011;7101;51.600;7.310;2023-02-25T13:09:12;7.70;;;1.70;;
14052;SDS011;7101;51.600;7.310;2023-02-25T13:12:11;6.38;;;1.50;;
14052;SDS011;7101;51.600;7.310;2023-02-25T13:14:57;4.55;;;1.38;;
14052;SDS011;7101;51.600;7.310;2023-02-25T13:17:41;5.32;;;1.23;;
14052;SDS011;7101;51.600;7.310;2023-02-25T13:20:40;4.80;;;1.27;;
14052;SDS011;7101;51.600;7.310;2023-02-25T13:26:19;8.00;;;1.33;;
14052;SDS011;7101;51.600;7.310;2023-02-25T13:29:10;3.15;;;1.00;;
14052;SDS011;7101;51.600;7.310;2023-02-25T13:31:49;3.47;;;1.05;;
14052;SDS011;7101;51.600;7.310;2023-02-25T13:34:24;4.72;;;1.00;;
14052;SDS011;7101;51.600;7.310;2023-02-25T13:37:13;3.72;;;1.08;;
14052;SDS011;7101;51.600;7.310;2023-02-25T13:42:57;1.98;;;0.90;;
14052;SDS011;7101;51.600;7.310;2023-02-25T13:45:53;3.92;;;0.80;;
14052;SDS011;7101;51.600;7.310;2023-02-25T13:48:35;1.38;;;0.65;;
14052;SDS011;7101;51.600;7.310;2023-02-25T13:51:37;4.72;;;1.00;;
14052;SDS011;7101;51.600;7.310;2023-02-25T13:54:35;2.78;;;0.73;;
14052;SDS011;7101;51.600;7.310;2023-02-25T13:57:23;1.67;;;0.85;;
14052;SDS011;7101;51.600;7.310;2023-02-25T14:00:02;5.30;;;1.35;;
14052;SDS011;7101;51.600;7.310;2023-02-25T14:03:02;3.03;;;1.23;;
14052;SDS011;7101;51.600;7.310;2023-02-25T14:05:52;2.03;;;1.00;;
14052;SDS011;7101;51.600;7.310;2023-02-25T14:11:27;1.88;;;0.90;;
14052;SDS011;7101;51.600;7.310;2023-02-25T14:17:10;2.63;;;0.85;;
14052;SDS011;7101;51.600;7.310;2023-02-25T14:19:50;2.70;;;0.90;;
14052;SDS011;7101;51.600;7.310;2023-02-25T14:22:31;2.40;;;0.90;;
14052;SDS011;7101;51.600;7.310;2023-02-25T14:25:04;3.53;;;0.77;;
14052;SDS011;7101;51.600;7.310;2023-02-25T14:27:46;2.55;;;1.02;;
14052;SDS011;7101;51.600;7.310;2023-02-25T14:30:21;3.15;;;0.98;;
14052;SDS011;7101;51.600;7.310;2023-02-25T14:32:59;2.65;;;1.08;;
14052;SDS011;7101;51.600;7.310;2023-02-25T14:38:35;5.95;;;1.35;;
14052;SDS011;7101;51.600;7.310;2023-02-25T14:41:16;4.65;;;1.00;;
14052;SDS011;7101;51.600;7.310;2023-02-25T14:43:53;2.08;;;1.00;;
14052;SDS011;7101;51.600;7.310;2023-02-25T14:46:27;4.85;;;1.25;;
14052;SDS011;7101;51.600;7.310;2023-02-25T14:48:58;2.17;;;0.80;;
14052;SDS011;7101;51.600;7.310;2023-02-25T14:54:46;2.83;;;0.85;;
14052;SDS011;7101;51.600;7.310;2023-02-25T14:57:41;3.10;;;1.05;;
14052;SDS011;7101;51.600;7.310;2023-02-25T15:00:34;1.98;;;0.90;;
14052;SDS011;7101;51.600;7.310;2023-02-25T15:03:26;3.97;;;1.30;;
14052;SDS011;7101;51.600;7.310;2023-02-25T15:06:18;2.67;;;1.02;;
14052;SDS011;7101;51.600;7.310;2023-02-25T15:12:10;4.57;;;1.13;;
14052;SDS011;7101;51.600;7.310;2023-02-25T15:15:10;2.38;;;1.10;;
14052;SDS011;7101;51.600;7.310;2023-02-25T15:24:08;4.88;;;1.48;;
14052;SDS011;7101;51.600;7.310;2023-02-25T15:26:55;4.97;;;1.30;;
14052;SDS011;7101;51.600;7.310;2023-02-25T15:32:23;6.32;;;1.23;;
14052;SDS011;7101;51.600;7.310;2023-02-25T15:34:54;3.20;;;1.23;;
14052;SDS011;7101;51.600;7.310;2023-02-25T15:37:27;5.32;;;1.20;;
14052;SDS011;7101;51.600;7.310;2023-02-25T15:40:00;5.07;;;1.20;;
14052;SDS011;7101;51.600;7.310;2023-02-25T15:42:54;2.90;;;1.00;;
14052;SDS011;7101;51.600;7.310;2023-02-25T15:45:38;4.13;;;0.90;;
14052;SDS011;7101;51.600;7.310;2023-02-25T15:51:03;2.97;;;1.25;;
14052;SDS011;7101;51.600;7.310;2023-02-25T15:53:42;3.90;;;1.30;;
14052;SDS011;7101;51.600;7.310;2023-02-25T15:56:23;2.78;;;1.00;;
14052;SDS011;7101;51.600;7.310;2023-02-25T15:58:57;2.53;;;0.80;;
14052;SDS011;7101;51.600;7.310;2023-02-25T16:01:26;2.47;;;1.20;;
14052;SDS011;7101;51.600;7.310;2023-02-25T16:03:55;2.33;;;1.02;;
14052;SDS011;7101;51.600;7.310;2023-02-25T16:06:22;3.13;;;1.27;;
14052;SDS011;7101;51.600;7.310;2023-02-25T16:09:00;2.97;;;1.00;;
14052;SDS011;7101;51.600;7.310;2023-02-25T16:11:33;4.95;;;1.27;;
14052;SDS011;7101;51.600;7.310;2023-02-25T16:14:05;8.10;;;1.20;;
14052;SDS011;7101;51.600;7.310;2023-02-25T16:16:38;2.53;;;1.20;;
14052;SDS011;7101;51.600;7.310;2023-02-25T16:19:18;2.25;;;1.20;;
14052;SDS011;7101;51.600;7.310;2023-02-25T16:21:47;2.53;;;0.98;;
14052;SDS011;7101;51.600;7.310;2023-02-25T16:24:18;2.72;;;1.08;;
14052;SDS011;7101;51.600;7.310;2023-02-25T16:26:47;4.63;;;1.02;;
14052;SDS011;7101;51.600;7.310;2023-02-25T16:29:31;3.92;;;1.23;;
14052;SDS011;7101;51.600;7.310;2023-02-25T16:32:06;3.60;;;1.52;;
14052;SDS011;7101;51.600;7.310;2023-02-25T16:34:44;4.40;;;1.45;;
14052;SDS011;7101;51.600;7.310;2023-02-25T16:37:15;3.53;;;1.30;;
14052;SDS011;7101;51.600;7.310;2023-02-25T16:39:48;3.05;;;1.23;;
14052;SDS011;7101;51.600;7.310;2023-02-25T16:42:16;3.47;;;1.20;;